createdAt,value
2018-11-11T00:00:11.863Z,95.90
2018-11-11T00:02:40.906Z,96.10
2018-11-11T00:05:10.790Z,96.30
2018-11-11T00:07:40.018Z,96.30
2018-11-11T00:10:09.015Z,96.30
2018-11-11T00:12:38.470Z,96.40
2018-11-11T00:15:09.495Z,96.30
2018-11-11T00:17:38.492Z,96.40
2018-11-11T00:20:08.320Z,96.60
2018-11-11T00:22:37.806Z,96.50
2018-11-11T00:25:07.367Z,96.30
2018-11-11T00:27:42.486Z,96.00
2018-11-11T00:30:13.982Z,95.90
2018-11-11T00:32:43.126Z,96.10
2018-11-11T00:35:12.191Z,96.40
2018-11-11T00:37:41.602Z,96.10
2018-11-11T00:40:11.865Z,95.90
2018-11-11T00:42:40.801Z,95.90
2018-11-11T00:45:10.092Z,95.90
2018-11-11T00:47:39.102Z,96.40
2018-11-11T00:50:09.299Z,96.70
2018-11-11T00:52:38.347Z,96.50
2018-11-11T00:55:09.519Z,96.50
2018-11-11T00:57:38.414Z,96.40
2018-11-11T01:00:11.552Z,96.70
2018-11-11T01:02:40.942Z,97.10
2018-11-11T01:05:10.913Z,97.20
2018-11-11T01:07:40.738Z,97.50
2018-11-11T01:10:11.557Z,97.80
2018-11-11T01:12:41.526Z,97.80
2018-11-11T01:15:12.148Z,97.80
2018-11-11T01:17:41.126Z,98.10
2018-11-11T01:20:12.002Z,98.20
2018-11-11T01:22:41.062Z,98.60
2018-11-11T01:25:12.076Z,98.80
2018-11-11T01:27:41.090Z,98.80
2018-11-11T01:30:10.078Z,99.00
2018-11-11T01:32:39.414Z,99.30
2018-11-11T01:35:11.167Z,99.10
2018-11-11T01:37:40.727Z,99.20
2018-11-11T01:40:09.690Z,99.50
2018-11-11T01:42:38.727Z,99.80
2018-11-11T01:45:12.072Z,99.60
2018-11-11T01:47:41.157Z,99.60
2018-11-11T01:50:10.995Z,99.90
2018-11-11T01:52:40.398Z,99.90
2018-11-11T01:55:10.332Z,99.90
2018-11-11T01:57:39.629Z,99.90
2018-11-11T02:00:10.742Z,99.90
2018-11-11T02:02:39.770Z,99.90
2018-11-11T02:05:10.194Z,99.80
2018-11-11T02:07:39.322Z,99.80
2018-11-11T02:10:09.339Z,99.90
2018-11-11T02:12:39.606Z,99.90
2018-11-11T02:15:09.823Z,99.90
2018-11-11T02:17:38.727Z,99.90
2018-11-11T02:20:09.570Z,99.90
2018-11-11T02:22:38.538Z,99.90
2018-11-11T02:25:07.885Z,99.90
2018-11-11T02:27:36.843Z,99.90
2018-11-11T02:30:07.962Z,99.90
2018-11-11T02:32:36.951Z,99.90
2018-11-11T02:35:06.523Z,99.90
2018-11-11T02:37:35.832Z,99.90
2018-11-11T02:40:06.496Z,99.90
2018-11-11T02:42:35.599Z,99.90
2018-11-11T02:45:05.331Z,99.90
2018-11-11T02:47:34.339Z,99.90
2018-11-11T02:50:03.534Z,99.90
2018-11-11T02:52:32.460Z,99.90
2018-11-11T02:55:01.409Z,99.90
2018-11-11T02:57:30.313Z,99.90
2018-11-11T02:59:59.222Z,99.90
2018-11-11T03:02:28.194Z,99.90
2018-11-11T03:04:57.237Z,99.90
2018-11-11T03:07:26.538Z,99.90
2018-11-11T03:09:55.615Z,99.90
2018-11-11T03:12:24.577Z,99.90
2018-11-11T03:14:53.554Z,99.90
2018-11-11T03:17:22.514Z,99.90
2018-11-11T03:19:51.447Z,99.90
2018-11-11T03:22:20.346Z,99.90
2018-11-11T03:24:49.307Z,99.90
2018-11-11T03:27:18.274Z,99.90
2018-11-11T03:29:47.195Z,99.90
2018-11-11T03:32:16.225Z,99.90
2018-11-11T03:34:45.278Z,99.90
2018-11-11T03:37:14.267Z,99.90
2018-11-11T03:39:43.206Z,99.90
2018-11-11T03:42:12.148Z,99.90
2018-11-11T03:44:41.039Z,99.90
2018-11-11T03:47:10.014Z,99.90
2018-11-11T03:49:38.961Z,99.90
2018-11-11T03:52:07.961Z,99.90
2018-11-11T03:54:36.959Z,99.90
2018-11-11T03:57:06.017Z,99.90
2018-11-11T03:59:35.101Z,99.90
2018-11-11T04:02:04.135Z,99.90
2018-11-11T04:04:33.057Z,99.90
2018-11-11T04:07:01.999Z,99.90
2018-11-11T04:09:30.926Z,99.90
2018-11-11T04:11:59.879Z,99.90
2018-11-11T04:14:28.790Z,99.90
2018-11-11T04:16:57.814Z,99.90
2018-11-11T04:19:26.859Z,99.90
2018-11-11T04:21:55.951Z,99.90
2018-11-11T04:24:24.934Z,99.90
2018-11-11T04:26:53.870Z,99.90
2018-11-11T04:29:22.807Z,99.90
2018-11-11T04:31:51.758Z,99.90
2018-11-11T04:34:20.638Z,99.90
2018-11-11T04:36:49.732Z,99.90
2018-11-11T04:39:18.697Z,99.90
2018-11-11T04:41:47.930Z,99.90
2018-11-11T04:44:17.090Z,99.90
2018-11-11T04:46:46.052Z,99.90
2018-11-11T04:49:15.125Z,99.90
2018-11-11T04:51:44.103Z,99.90
2018-11-11T04:54:13.002Z,99.90
2018-11-11T04:56:41.925Z,99.90
2018-11-11T04:59:10.945Z,99.90
2018-11-11T05:01:39.921Z,99.90
2018-11-11T05:04:08.835Z,99.90
2018-11-11T05:06:37.862Z,99.90
2018-11-11T05:09:09.590Z,99.90
2018-11-11T05:11:38.810Z,99.90
2018-11-11T05:14:07.843Z,99.90
2018-11-11T05:16:36.793Z,99.90
2018-11-11T05:19:06.939Z,99.90
2018-11-11T05:21:35.880Z,99.90
2018-11-11T05:24:05.212Z,99.90
2018-11-11T05:26:34.423Z,99.90
2018-11-11T05:29:03.807Z,99.90
2018-11-11T05:31:32.719Z,99.90
2018-11-11T05:34:01.707Z,99.90
2018-11-11T05:36:30.777Z,99.90
2018-11-11T05:38:59.685Z,99.90
2018-11-11T05:41:28.791Z,99.90
2018-11-11T05:43:57.725Z,99.90
2018-11-11T05:46:26.686Z,99.90
2018-11-11T05:48:55.651Z,99.90
2018-11-11T05:51:24.650Z,99.90
2018-11-11T05:53:53.618Z,99.90
2018-11-11T05:56:22.580Z,99.90
2018-11-11T05:58:51.638Z,99.90
2018-11-11T06:01:20.682Z,99.90
2018-11-11T06:03:49.685Z,99.90
2018-11-11T06:06:18.686Z,99.90
2018-11-11T06:08:47.902Z,99.90
2018-11-11T06:11:16.901Z,99.90
2018-11-11T06:13:45.868Z,99.90
2018-11-11T06:16:14.810Z,99.90
2018-11-11T06:18:43.747Z,99.90
2018-11-11T06:21:12.798Z,99.90
2018-11-11T06:23:41.710Z,99.90
2018-11-11T06:26:10.607Z,99.90
2018-11-11T06:28:39.646Z,99.90
2018-11-11T06:31:08.826Z,99.90
2018-11-11T06:33:37.884Z,99.90
2018-11-11T06:36:06.847Z,99.90
2018-11-11T06:38:35.804Z,99.90
2018-11-11T06:41:04.926Z,99.90
2018-11-11T06:43:33.866Z,99.90
2018-11-11T06:46:02.814Z,99.90
2018-11-11T06:48:31.768Z,99.90
2018-11-11T06:51:00.661Z,99.90
2018-11-11T06:53:29.638Z,99.90
2018-11-11T06:55:58.719Z,99.90
2018-11-11T06:58:27.687Z,99.90
2018-11-11T07:00:56.610Z,99.90
2018-11-11T07:03:37.025Z,99.90
2018-11-11T07:06:06.318Z,99.90
2018-11-11T07:08:35.246Z,99.90
2018-11-11T07:11:04.224Z,99.90
2018-11-11T07:13:33.171Z,99.90
2018-11-11T07:16:02.102Z,99.90
2018-11-11T07:18:31.046Z,99.90
2018-11-11T07:21:00.211Z,99.90
2018-11-11T07:23:29.241Z,99.90
2018-11-11T07:25:58.277Z,99.90
2018-11-11T07:28:27.254Z,99.90
2018-11-11T07:30:56.290Z,99.90
2018-11-11T07:33:25.483Z,99.90
2018-11-11T07:35:54.421Z,99.90
2018-11-11T07:38:23.291Z,99.90
2018-11-11T07:40:52.303Z,99.90
2018-11-11T07:43:21.310Z,99.90
2018-11-11T07:45:50.694Z,99.90
2018-11-11T07:48:20.038Z,99.90
2018-11-11T07:50:49.110Z,99.90
2018-11-11T07:53:18.262Z,99.90
2018-11-11T07:55:47.194Z,99.90
2018-11-11T07:58:16.162Z,99.90
2018-11-11T08:00:45.059Z,99.90
2018-11-11T08:03:14.094Z,99.90
2018-11-11T08:05:42.995Z,99.90
2018-11-11T08:08:11.940Z,99.90
2018-11-11T08:10:52.114Z,99.90
2018-11-11T08:13:21.115Z,99.90
2018-11-11T08:15:50.286Z,99.90
2018-11-11T08:18:19.278Z,99.90
2018-11-11T08:20:48.311Z,99.90
2018-11-11T08:23:17.253Z,99.90
2018-11-11T08:25:46.179Z,99.90
2018-11-11T08:28:15.150Z,99.90
2018-11-11T08:30:44.111Z,99.90
2018-11-11T08:33:13.024Z,99.90
2018-11-11T08:35:42.087Z,99.90
2018-11-11T08:38:11.042Z,99.90
2018-11-11T08:40:39.990Z,99.90
2018-11-11T08:43:08.840Z,99.90
2018-11-11T08:45:37.782Z,99.90
2018-11-11T08:48:06.826Z,99.90
2018-11-11T08:50:35.786Z,99.90
2018-11-11T08:53:04.703Z,99.90
2018-11-11T08:55:33.592Z,99.90
2018-11-11T08:58:02.548Z,99.90
2018-11-11T09:00:31.377Z,99.90
2018-11-11T09:03:00.371Z,99.90
2018-11-11T09:05:29.278Z,99.90
2018-11-11T09:07:58.206Z,99.90
2018-11-11T09:10:27.215Z,99.90
2018-11-11T09:12:56.386Z,99.90
2018-11-11T09:15:25.542Z,99.90
2018-11-11T09:17:54.473Z,99.80
2018-11-11T09:20:23.379Z,99.90
2018-11-11T09:22:52.471Z,99.90
2018-11-11T09:25:21.481Z,99.90
2018-11-11T09:27:50.361Z,99.90
2018-11-11T09:30:19.431Z,99.90
2018-11-11T09:32:48.376Z,99.60
2018-11-11T09:35:17.278Z,98.60
2018-11-11T09:37:46.310Z,98.60
2018-11-11T09:40:16.443Z,97.70
2018-11-11T09:42:45.398Z,97.80
2018-11-11T09:45:15.493Z,98.30
2018-11-11T09:47:46.923Z,96.40
2018-11-11T09:50:16.767Z,97.40
2018-11-11T09:52:45.767Z,96.80
2018-11-11T09:55:15.160Z,96.00
2018-11-11T09:57:44.145Z,95.70
2018-11-11T10:00:16.470Z,95.40
2018-11-11T10:02:50.915Z,95.50
2018-11-11T10:05:25.253Z,95.80
2018-11-11T10:10:03.907Z,95.10
2018-11-11T10:12:36.483Z,95.40
2018-11-11T10:15:13.422Z,96.10
2018-11-11T10:17:51.016Z,95.60
2018-11-11T10:20:28.146Z,94.90
2018-11-11T10:23:03.645Z,96.30
2018-11-11T10:26:08.376Z,95.00
2018-11-11T10:28:41.270Z,94.80
2018-11-11T10:31:45.788Z,93.80
2018-11-11T10:34:23.137Z,94.80
2018-11-11T10:37:55.150Z,94.80
2018-11-11T10:40:42.666Z,92.30
2018-11-11T10:43:25.786Z,93.30
2018-11-11T10:45:59.973Z,93.00
2018-11-11T10:48:32.333Z,92.60
2018-11-11T10:51:02.859Z,91.30
2018-11-11T10:53:31.807Z,92.10
2018-11-11T10:56:00.722Z,91.60
2018-11-11T10:58:29.730Z,90.40
2018-11-11T11:01:03.967Z,89.10
2018-11-11T11:03:34.270Z,88.80
2018-11-11T11:06:04.021Z,87.30
2018-11-11T11:08:33.130Z,85.00
2018-11-11T11:11:02.046Z,85.10
2018-11-11T11:13:31.143Z,85.30
2018-11-11T11:16:00.138Z,87.60
2018-11-11T11:18:29.135Z,85.30
2018-11-11T11:20:58.138Z,85.10
2018-11-11T11:23:27.086Z,78.50
2018-11-11T11:25:56.049Z,79.90
2018-11-11T11:28:25.282Z,78.30
2018-11-11T11:30:54.184Z,76.50
2018-11-11T11:33:23.171Z,75.50
2018-11-11T11:35:52.152Z,74.00
2018-11-11T11:38:21.039Z,72.00
2018-11-11T11:40:49.931Z,77.00
2018-11-11T11:43:18.854Z,74.10
2018-11-11T11:45:47.746Z,73.10
2018-11-11T11:48:16.654Z,68.90
2018-11-11T11:50:45.635Z,74.40
2018-11-11T11:53:14.542Z,74.60
2018-11-11T11:55:43.410Z,70.80
2018-11-11T11:58:18.070Z,72.80
2018-11-11T12:00:47.011Z,73.00
2018-11-11T12:03:16.280Z,68.40
2018-11-11T12:05:45.857Z,64.80
2018-11-11T12:08:14.860Z,63.30
2018-11-11T12:10:43.902Z,64.90
2018-11-11T12:13:13.619Z,61.90
2018-11-11T12:15:42.986Z,65.60
2018-11-11T12:18:12.151Z,59.80
2018-11-11T12:20:41.434Z,56.30
2018-11-11T12:23:10.959Z,56.50
2018-11-11T12:25:40.157Z,55.80
2018-11-11T12:28:09.506Z,55.90
2018-11-11T12:30:38.454Z,54.20
2018-11-11T12:33:07.403Z,55.40
2018-11-11T12:35:36.482Z,53.80
2018-11-11T12:38:05.565Z,51.80
2018-11-11T12:40:34.511Z,51.90
2018-11-11T12:43:03.451Z,50.30
2018-11-11T12:45:32.405Z,50.50
2018-11-11T12:48:01.306Z,50.40
2018-11-11T12:50:30.351Z,47.90
2018-11-11T12:52:59.216Z,47.70
2018-11-11T12:55:28.193Z,47.00
2018-11-11T12:57:57.027Z,45.40
2018-11-11T13:00:25.942Z,45.70
2018-11-11T13:02:54.826Z,45.30
2018-11-11T13:05:23.736Z,44.60
2018-11-11T13:07:52.706Z,43.60
2018-11-11T13:10:21.660Z,43.30
2018-11-11T13:12:50.663Z,47.90
2018-11-11T13:15:19.647Z,50.50
2018-11-11T13:17:48.579Z,52.60
2018-11-11T13:20:18.719Z,49.60
2018-11-11T13:22:47.877Z,46.20
2018-11-11T13:25:16.634Z,45.30
2018-11-11T13:27:45.582Z,44.10
2018-11-11T13:30:15.137Z,45.90
2018-11-11T13:32:44.178Z,47.00
2018-11-11T13:35:14.505Z,48.80
2018-11-11T13:37:43.781Z,51.00
2018-11-11T13:40:18.034Z,52.40
2018-11-11T13:42:46.957Z,54.80
2018-11-11T13:45:17.756Z,56.30
2018-11-11T13:47:47.560Z,58.40
2018-11-11T13:50:19.745Z,58.90
2018-11-11T13:52:48.766Z,59.40
2018-11-11T13:55:18.186Z,61.40
2018-11-11T13:57:47.543Z,61.80
2018-11-11T14:00:20.794Z,63.30
2018-11-11T14:02:49.839Z,64.70
2018-11-11T14:05:18.768Z,66.60
2018-11-11T14:07:47.675Z,67.20
2018-11-11T14:10:16.970Z,68.10
2018-11-11T14:12:45.910Z,68.00
2018-11-11T14:15:17.136Z,66.10
2018-11-11T14:17:46.574Z,67.00
2018-11-11T14:20:16.812Z,67.00
2018-11-11T14:22:46.733Z,66.30
2018-11-11T14:25:19.403Z,65.10
2018-11-11T14:27:48.246Z,64.10
2018-11-11T14:30:19.774Z,64.00
2018-11-11T14:32:49.506Z,66.30
2018-11-11T14:35:18.463Z,68.60
2018-11-11T14:37:47.723Z,68.40
2018-11-11T14:40:18.714Z,69.80
2018-11-11T14:42:47.709Z,72.30
2018-11-11T14:45:17.606Z,73.10
2018-11-11T14:47:47.757Z,74.90
2018-11-11T14:50:17.473Z,75.90
2018-11-11T14:52:46.913Z,77.00
2018-11-11T14:55:18.805Z,76.80
2018-11-11T14:57:47.725Z,76.80
2018-11-11T15:00:25.274Z,76.70
2018-11-11T15:03:02.518Z,77.30
2018-11-11T15:05:31.590Z,79.30
2018-11-11T15:08:00.773Z,81.80
2018-11-11T15:10:29.649Z,84.20
2018-11-11T15:12:58.637Z,87.30
2018-11-11T15:15:27.578Z,89.30
2018-11-11T15:17:57.440Z,90.40
2018-11-11T15:20:26.412Z,91.40
2018-11-11T15:22:55.277Z,91.70
2018-11-11T15:25:25.632Z,91.70
2018-11-11T15:27:54.535Z,92.10
2018-11-11T15:30:32.328Z,92.60
2018-11-11T15:33:01.822Z,93.20
2018-11-11T15:35:30.887Z,93.40
2018-11-11T15:37:59.826Z,93.60
2018-11-11T15:40:32.220Z,93.90
2018-11-11T15:43:01.557Z,94.00
2018-11-11T15:45:31.963Z,94.80
2018-11-11T15:48:01.186Z,94.50
2018-11-11T15:50:31.406Z,94.60
2018-11-11T15:53:01.847Z,94.60
2018-11-11T15:55:31.974Z,94.80
2018-11-11T15:58:00.983Z,94.80
2018-11-11T16:00:32.251Z,95.30
2018-11-11T16:03:01.175Z,95.20
2018-11-11T16:05:30.077Z,95.30
2018-11-11T16:07:59.698Z,95.30
2018-11-11T16:10:30.007Z,95.30
2018-11-11T16:12:58.962Z,95.80
2018-11-11T16:15:31.200Z,95.70
2018-11-11T16:18:03.895Z,96.00
2018-11-11T16:20:33.151Z,96.00
2018-11-11T16:23:03.374Z,95.90
2018-11-11T16:25:32.704Z,95.90
2018-11-11T16:28:01.650Z,95.90
2018-11-11T16:30:32.764Z,96.10
2018-11-11T16:33:01.928Z,96.10
2018-11-11T16:35:31.322Z,96.20
2018-11-11T16:38:00.890Z,96.20
2018-11-11T16:40:32.126Z,96.30
2018-11-11T16:43:01.244Z,96.60
2018-11-11T16:45:31.362Z,96.40
2018-11-11T16:48:00.415Z,96.40
2018-11-11T16:50:30.794Z,96.50
2018-11-11T16:53:01.382Z,96.30
2018-11-11T16:55:31.336Z,96.40
2018-11-11T16:58:00.342Z,96.40
2018-11-11T17:00:30.662Z,96.60
2018-11-11T17:03:00.665Z,96.70
2018-11-11T17:05:30.892Z,96.60
2018-11-11T17:07:59.886Z,96.40
2018-11-11T17:10:30.255Z,96.60
2018-11-11T17:13:00.603Z,96.70
2018-11-11T17:15:30.695Z,96.50
2018-11-11T17:17:59.874Z,96.60
2018-11-11T17:20:29.050Z,96.40
2018-11-11T17:23:00.922Z,96.40
2018-11-11T17:25:31.638Z,96.60
2018-11-11T17:28:00.820Z,96.70
2018-11-11T17:30:31.189Z,96.80
2018-11-11T17:33:05.532Z,96.80
2018-11-11T17:35:38.929Z,96.80
2018-11-11T17:38:08.223Z,96.80
2018-11-11T17:40:38.921Z,96.90
2018-11-11T17:43:08.085Z,96.90
2018-11-11T17:45:37.000Z,96.80
2018-11-11T17:48:06.180Z,96.80
2018-11-11T17:50:35.749Z,97.10
2018-11-11T17:53:05.998Z,97.10
2018-11-11T17:55:34.960Z,97.10
2018-11-11T17:58:05.063Z,96.90
2018-11-11T18:00:33.983Z,97.10
2018-11-11T18:03:04.298Z,97.00
2018-11-11T18:05:33.394Z,97.10
2018-11-11T18:08:05.983Z,97.30
2018-11-11T18:10:35.456Z,97.50
2018-11-11T18:13:04.382Z,97.30
2018-11-11T18:15:33.483Z,97.40
2018-11-11T18:18:03.233Z,97.40
2018-11-11T18:20:33.283Z,97.40
2018-11-11T18:23:03.536Z,97.50
2018-11-11T18:25:32.457Z,97.70
2018-11-11T18:28:01.579Z,97.90
2018-11-11T18:30:34.514Z,98.00
2018-11-11T18:33:03.435Z,97.80
2018-11-11T18:35:38.390Z,97.90
2018-11-11T18:38:09.451Z,97.60
2018-11-11T18:40:38.427Z,97.60
2018-11-11T18:43:07.574Z,97.70
2018-11-11T18:45:36.620Z,97.70
2018-11-11T18:48:07.169Z,97.90
2018-11-11T18:50:37.405Z,98.10
2018-11-11T18:53:06.639Z,98.10
2018-11-11T18:55:35.583Z,98.30
2018-11-11T18:58:04.850Z,98.30
2018-11-11T19:00:34.655Z,98.00
2018-11-11T19:03:03.891Z,98.30
2018-11-11T19:05:36.893Z,98.30
2018-11-11T19:08:06.127Z,98.30
2018-11-11T19:10:35.107Z,98.30
2018-11-11T19:13:05.472Z,98.30
2018-11-11T19:15:34.376Z,98.30
2018-11-11T19:18:04.661Z,98.30
2018-11-11T19:20:35.952Z,98.30
2018-11-11T19:23:05.305Z,98.20
2018-11-11T19:25:34.203Z,98.20
2018-11-11T19:28:04.619Z,98.20
2018-11-11T19:30:36.898Z,98.40
2018-11-11T19:33:05.987Z,98.20
2018-11-11T19:35:37.224Z,98.20
2018-11-11T19:38:06.195Z,98.80
2018-11-11T19:40:35.243Z,98.90
2018-11-11T19:43:07.133Z,98.80
2018-11-11T19:45:36.256Z,98.80
2018-11-11T19:48:05.852Z,98.80
2018-11-11T19:50:35.342Z,99.10
2018-11-11T19:53:04.718Z,99.00
2018-11-11T19:55:34.011Z,98.90
2018-11-11T19:58:04.362Z,98.90
2018-11-11T20:00:34.324Z,99.30
2018-11-11T20:03:04.788Z,99.20
2018-11-11T20:05:34.116Z,99.10
2018-11-11T20:08:03.539Z,99.10
2018-11-11T20:10:33.124Z,99.10
2018-11-11T20:13:03.651Z,99.30
2018-11-11T20:15:33.909Z,99.40
2018-11-11T20:18:02.943Z,99.20
2018-11-11T20:20:33.471Z,99.50
2018-11-11T20:23:02.571Z,99.60
2018-11-11T20:25:38.003Z,99.50
2018-11-11T20:28:08.030Z,99.50
2018-11-11T20:30:38.845Z,99.40
2018-11-11T20:33:08.071Z,99.90
2018-11-11T20:35:37.133Z,99.90
2018-11-11T20:38:07.099Z,99.80
2018-11-11T20:40:36.305Z,99.60
2018-11-11T20:43:05.782Z,99.40
2018-11-11T20:45:36.016Z,99.90
2018-11-11T20:48:05.435Z,99.70
2018-11-11T20:50:36.618Z,99.80
2018-11-11T20:53:06.545Z,99.70
2018-11-11T20:55:38.842Z,99.50
2018-11-11T20:58:08.768Z,99.70
2018-11-11T21:00:39.247Z,99.80
2018-11-11T21:03:08.787Z,99.80
2018-11-11T21:05:44.373Z,99.40
2018-11-11T21:08:13.398Z,99.90
2018-11-11T21:10:42.591Z,99.90
2018-11-11T21:13:11.519Z,99.90
2018-11-11T21:15:40.629Z,99.80
2018-11-11T21:18:09.579Z,99.90
2018-11-11T21:20:38.646Z,99.90
2018-11-11T21:23:08.127Z,99.90
2018-11-11T21:25:37.224Z,99.90
2018-11-11T21:28:06.175Z,99.80
2018-11-11T21:30:35.122Z,99.70
2018-11-11T21:33:05.690Z,99.70
2018-11-11T21:35:38.844Z,99.50
2018-11-11T21:38:07.787Z,99.30
2018-11-11T21:40:37.381Z,99.20
2018-11-11T21:43:06.558Z,99.50
2018-11-11T21:45:35.544Z,99.80
2018-11-11T21:48:05.812Z,99.80
2018-11-11T21:50:36.246Z,99.90
2018-11-11T21:53:24.405Z,99.90
2018-11-11T21:55:56.490Z,99.90
2018-11-11T21:58:26.776Z,99.90
2018-11-11T22:00:56.050Z,99.90
2018-11-11T22:03:25.446Z,99.90
2018-11-11T22:05:54.678Z,99.90
2018-11-11T22:08:24.361Z,99.90
2018-11-11T22:10:53.885Z,99.80
2018-11-11T22:13:23.677Z,99.80
2018-11-11T22:15:53.033Z,99.80
2018-11-11T22:18:22.018Z,99.80
2018-11-11T22:20:50.975Z,99.80
2018-11-11T22:23:19.875Z,99.90
2018-11-11T22:25:48.800Z,99.90
2018-11-11T22:28:17.718Z,99.90
2018-11-11T22:30:46.694Z,99.90
2018-11-11T22:33:15.633Z,99.90
2018-11-11T22:35:44.613Z,99.90
2018-11-11T22:38:13.587Z,99.90
2018-11-11T22:40:42.551Z,99.90
2018-11-11T22:43:11.490Z,99.90
2018-11-11T22:45:40.482Z,99.90
2018-11-11T22:48:09.503Z,99.90
2018-11-11T22:50:38.611Z,99.90
2018-11-11T22:53:07.563Z,99.90
2018-11-11T22:55:36.560Z,99.90
2018-11-11T22:58:05.823Z,99.90
2018-11-11T23:00:34.881Z,99.90
2018-11-11T23:03:03.863Z,99.90
2018-11-11T23:05:32.799Z,99.90
2018-11-11T23:08:01.723Z,99.90
2018-11-11T23:10:30.830Z,99.90
2018-11-11T23:12:59.779Z,99.90
2018-11-11T23:15:28.754Z,99.90
2018-11-11T23:17:57.694Z,99.90
2018-11-11T23:20:27.352Z,99.90
2018-11-11T23:22:56.382Z,99.90
2018-11-11T23:25:25.701Z,99.90
2018-11-11T23:27:54.879Z,99.90
2018-11-11T23:30:24.078Z,99.90
2018-11-11T23:32:53.066Z,99.90
2018-11-11T23:35:22.182Z,99.90
2018-11-11T23:37:51.229Z,99.90
2018-11-11T23:40:20.170Z,99.90
2018-11-11T23:42:49.141Z,99.90
2018-11-11T23:45:18.172Z,99.90
2018-11-11T23:47:47.111Z,99.90
2018-11-11T23:50:17.423Z,99.90
2018-11-11T23:52:46.798Z,99.90
2018-11-11T23:55:16.847Z,99.90
2018-11-11T23:57:45.896Z,99.90
